sensor_id;sensor_type;location;lat;lon;timestamp;pressure;altitude;pressure_sealevel;temperature;humidity
48563;BME280;34981;49.104;11.396;2022-07-01T00:02:18;95400.19;;;19.54;81.40
48563;BME280;34981;49.104;11.396;2022-07-01T00:04:45;95404.25;;;19.48;81.50
48563;BME280;34981;49.104;11.396;2022-07-01T00:07:30;95408.31;;;19.41;81.96
48563;BME280;34981;49.104;11.396;2022-07-01T00:09:57;95411.03;;;19.41;81.77
48563;BME280;34981;49.104;11.396;2022-07-01T00:12:24;95421.94;;;19.41;82.08
48563;BME280;34981;49.104;11.396;2022-07-01T00:14:52;95414.66;;;19.33;82.37
48563;BME280;34981;49.104;11.396;2022-07-01T00:17:19;95407.63;;;19.32;82.39
48563;BME280;34981;49.104;11.396;2022-07-01T00:19:46;95406.34;;;19.30;82.42
48563;BME280;34981;49.104;11.396;2022-07-01T00:22:13;95410.75;;;19.22;82.82
48563;BME280;34981;49.104;11.396;2022-07-01T00:24:40;95419.41;;;19.24;82.72
48563;BME280;34981;49.104;11.396;2022-07-01T00:27:07;95415.56;;;19.25;82.78
48563;BME280;34981;49.104;11.396;2022-07-01T00:29:34;95427.13;;;19.22;82.44
48563;BME280;34981;49.104;11.396;2022-07-01T00:32:02;95426.22;;;19.18;82.55
48563;BME280;34981;49.104;11.396;2022-07-01T00:34:29;95446.75;;;19.16;82.65
48563;BME280;34981;49.104;11.396;2022-07-01T00:36:56;95452.53;;;19.14;82.46
48563;BME280;34981;49.104;11.396;2022-07-01T00:39:23;95458.66;;;19.11;82.56
48563;BME280;34981;49.104;11.396;2022-07-01T00:41:50;95456.94;;;19.07;82.91
48563;BME280;34981;49.104;11.396;2022-07-01T00:44:22;95446.72;;;19.03;83.23
48563;BME280;34981;49.104;11.396;2022-07-01T00:46:49;95447.38;;;19.00;83.50
48563;BME280;34981;49.104;11.396;2022-07-01T00:49:17;95456.56;;;18.96;83.49
48563;BME280;34981;49.104;11.396;2022-07-01T00:51:45;95474.03;;;18.95;83.40
48563;BME280;34981;49.104;11.396;2022-07-01T00:54:12;95479.00;;;18.93;83.30
48563;BME280;34981;49.104;11.396;2022-07-01T00:56:40;95480.81;;;18.89;83.25
48563;BME280;34981;49.104;11.396;2022-07-01T00:59:07;95483.41;;;18.85;83.07
48563;BME280;34981;49.104;11.396;2022-07-01T01:01:34;95488.06;;;18.85;83.12
48563;BME280;34981;49.104;11.396;2022-07-01T01:04:02;95497.38;;;18.84;83.02
48563;BME280;34981;49.104;11.396;2022-07-01T01:06:29;95471.03;;;18.88;82.90
48563;BME280;34981;49.104;11.396;2022-07-01T01:08:56;95452.19;;;18.83;84.65
48563;BME280;34981;49.104;11.396;2022-07-01T01:11:24;95447.16;;;18.73;87.26
48563;BME280;34981;49.104;11.396;2022-07-01T01:13:51;95446.22;;;18.69;88.99
48563;BME280;34981;49.104;11.396;2022-07-01T01:16:19;95446.63;;;18.58;90.15
48563;BME280;34981;49.104;11.396;2022-07-01T01:18:47;95454.97;;;18.53;92.68
48563;BME280;34981;49.104;11.396;2022-07-01T01:21:14;95455.69;;;18.42;93.00
48563;BME280;34981;49.104;11.396;2022-07-01T01:23:41;95457.16;;;18.39;94.73
48563;BME280;34981;49.104;11.396;2022-07-01T01:26:21;95456.75;;;18.28;95.11
48563;BME280;34981;49.104;11.396;2022-07-01T01:28:48;95446.69;;;18.20;94.80
48563;BME280;34981;49.104;11.396;2022-07-01T01:31:15;95447.22;;;18.14;95.04
48563;BME280;34981;49.104;11.396;2022-07-01T01:33:44;95464.22;;;18.11;96.26
48563;BME280;34981;49.104;11.396;2022-07-01T01:36:11;95464.88;;;18.08;95.96
48563;BME280;34981;49.104;11.396;2022-07-01T01:38:38;95467.78;;;18.03;95.48
48563;BME280;34981;49.104;11.396;2022-07-01T01:41:05;95467.63;;;17.99;95.26
48563;BME280;34981;49.104;11.396;2022-07-01T01:43:32;95466.56;;;17.92;96.70
48563;BME280;34981;49.104;11.396;2022-07-01T01:46:02;95475.53;;;17.83;97.32
48563;BME280;34981;49.104;11.396;2022-07-01T01:48:30;95474.28;;;17.81;97.31
48563;BME280;34981;49.104;11.396;2022-07-01T01:50:58;95477.34;;;17.79;96.20
48563;BME280;34981;49.104;11.396;2022-07-01T01:53:25;95471.41;;;17.77;96.30
48563;BME280;34981;49.104;11.396;2022-07-01T01:55:52;95464.72;;;17.75;95.83
48563;BME280;34981;49.104;11.396;2022-07-01T01:58:20;95462.34;;;17.73;96.58
48563;BME280;34981;49.104;11.396;2022-07-01T02:00:51;95463.16;;;17.65;96.67
48563;BME280;34981;49.104;11.396;2022-07-01T02:03:18;95466.53;;;17.62;96.93
48563;BME280;34981;49.104;11.396;2022-07-01T02:05:45;95466.38;;;17.50;97.06
48563;BME280;34981;49.104;11.396;2022-07-01T02:08:13;95467.03;;;17.47;97.84
48563;BME280;34981;49.104;11.396;2022-07-01T02:10:40;95459.34;;;17.49;97.94
48563;BME280;34981;49.104;11.396;2022-07-01T02:13:07;95474.72;;;17.45;97.27
48563;BME280;34981;49.104;11.396;2022-07-01T02:15:34;95476.78;;;17.48;97.94
48563;BME280;34981;49.104;11.396;2022-07-01T02:18:02;95466.38;;;17.50;97.74
48563;BME280;34981;49.104;11.396;2022-07-01T02:20:29;95472.94;;;17.49;97.66
48563;BME280;34981;49.104;11.396;2022-07-01T02:22:56;95484.31;;;17.42;96.99
48563;BME280;34981;49.104;11.396;2022-07-01T02:25:23;95487.34;;;17.41;97.38
48563;BME280;34981;49.104;11.396;2022-07-01T02:27:51;95486.41;;;17.45;96.73
48563;BME280;34981;49.104;11.396;2022-07-01T02:30:18;95479.00;;;17.46;97.30
48563;BME280;34981;49.104;11.396;2022-07-01T02:32:45;95474.25;;;17.43;96.57
48563;BME280;34981;49.104;11.396;2022-07-01T02:35:15;95477.75;;;17.43;96.36
48563;BME280;34981;49.104;11.396;2022-07-01T02:37:42;95490.06;;;17.41;96.47
48563;BME280;34981;49.104;11.396;2022-07-01T02:40:09;95497.72;;;17.39;96.86
48563;BME280;34981;49.104;11.396;2022-07-01T02:42:37;95501.59;;;17.38;96.77
48563;BME280;34981;49.104;11.396;2022-07-01T02:45:05;95508.78;;;17.34;97.38
48563;BME280;34981;49.104;11.396;2022-07-01T02:47:33;95511.50;;;17.34;96.85
48563;BME280;34981;49.104;11.396;2022-07-01T02:50:01;95504.47;;;17.33;96.91
48563;BME280;34981;49.104;11.396;2022-07-01T02:52:28;95505.75;;;17.27;96.94
48563;BME280;34981;49.104;11.396;2022-07-01T02:57:59;95517.59;;;17.22;97.04
48563;BME280;34981;49.104;11.396;2022-07-01T03:00:26;95518.72;;;17.21;97.33
48563;BME280;34981;49.104;11.396;2022-07-01T03:02:53;95522.53;;;17.29;96.11
48563;BME280;34981;49.104;11.396;2022-07-01T03:05:20;95526.06;;;17.29;96.07
48563;BME280;34981;49.104;11.396;2022-07-01T03:07:47;95525.25;;;17.29;96.87
48563;BME280;34981;49.104;11.396;2022-07-01T03:10:15;95524.94;;;17.30;95.50
48563;BME280;34981;49.104;11.396;2022-07-01T03:12:42;95517.59;;;17.31;95.35
48563;BME280;34981;49.104;11.396;2022-07-01T03:15:10;95523.66;;;17.36;94.67
48563;BME280;34981;49.104;11.396;2022-07-01T03:17:39;95528.28;;;17.36;94.30
48563;BME280;34981;49.104;11.396;2022-07-01T03:20:07;95540.88;;;17.40;94.08
48563;BME280;34981;49.104;11.396;2022-07-01T03:22:35;95544.22;;;17.46;93.84
48563;BME280;34981;49.104;11.396;2022-07-01T03:25:03;95543.47;;;17.37;94.86
48563;BME280;34981;49.104;11.396;2022-07-01T03:27:31;95542.50;;;17.33;94.93
48563;BME280;34981;49.104;11.396;2022-07-01T03:29:58;95533.22;;;17.34;94.49
48563;BME280;34981;49.104;11.396;2022-07-01T03:32:27;95534.19;;;17.38;94.84
48563;BME280;34981;49.104;11.396;2022-07-01T03:34:54;95530.06;;;17.23;94.51
48563;BME280;34981;49.104;11.396;2022-07-01T03:37:22;95537.09;;;17.16;95.29
48563;BME280;34981;49.104;11.396;2022-07-01T03:39:49;95552.75;;;17.19;94.85
48563;BME280;34981;49.104;11.396;2022-07-01T03:42:16;95564.28;;;17.16;95.52
48563;BME280;34981;49.104;11.396;2022-07-01T03:44:44;95571.13;;;17.13;94.87
48563;BME280;34981;49.104;11.396;2022-07-01T03:47:12;95583.91;;;17.12;95.17
48563;BME280;34981;49.104;11.396;2022-07-01T03:49:39;95596.19;;;17.19;93.97
48563;BME280;34981;49.104;11.396;2022-07-01T03:52:06;95602.91;;;17.04;93.97
48563;BME280;34981;49.104;11.396;2022-07-01T03:54:33;95595.72;;;16.99;94.28
48563;BME280;34981;49.104;11.396;2022-07-01T03:57:06;95604.03;;;16.94;95.16
48563;BME280;34981;49.104;11.396;2022-07-01T03:59:35;95607.19;;;16.88;95.49
48563;BME280;34981;49.104;11.396;2022-07-01T04:02:03;95601.63;;;16.84;95.23
48563;BME280;34981;49.104;11.396;2022-07-01T04:04:31;95607.06;;;16.84;95.10
48563;BME280;34981;49.104;11.396;2022-07-01T04:06:59;95609.28;;;16.82;94.36
48563;BME280;34981;49.104;11.396;2022-07-01T04:09:27;95583.72;;;16.83;94.24
48563;BME280;34981;49.104;11.396;2022-07-01T04:11:55;95584.38;;;16.80;94.55
48563;BME280;34981;49.104;11.396;2022-07-01T04:14:22;95583.72;;;16.83;93.55
48563;BME280;34981;49.104;11.396;2022-07-01T04:16:51;95580.19;;;16.74;94.43
48563;BME280;34981;49.104;11.396;2022-07-01T04:19:19;95582.59;;;16.67;94.70
48563;BME280;34981;49.104;11.396;2022-07-01T04:21:47;95571.59;;;16.72;94.40
48563;BME280;34981;49.104;11.396;2022-07-01T04:24:33;95576.38;;;16.75;94.27
48563;BME280;34981;49.104;11.396;2022-07-01T04:27:00;95583.25;;;16.72;94.43
48563;BME280;34981;49.104;11.396;2022-07-01T04:29:28;95590.25;;;16.73;95.00
48563;BME280;34981;49.104;11.396;2022-07-01T04:31:56;95575.56;;;16.74;94.14
48563;BME280;34981;49.104;11.396;2022-07-01T04:34:24;95577.19;;;16.76;94.03
48563;BME280;34981;49.104;11.396;2022-07-01T04:36:51;95570.78;;;16.71;94.34
48563;BME280;34981;49.104;11.396;2022-07-01T04:39:19;95580.84;;;16.71;93.96
48563;BME280;34981;49.104;11.396;2022-07-01T04:41:46;95571.75;;;16.76;93.94
48563;BME280;34981;49.104;11.396;2022-07-01T04:44:35;95573.16;;;16.73;93.86
48563;BME280;34981;49.104;11.396;2022-07-01T04:47:09;95572.88;;;16.83;93.59
48563;BME280;34981;49.104;11.396;2022-07-01T04:49:36;95572.56;;;16.76;92.99
48563;BME280;34981;49.104;11.396;2022-07-01T04:52:03;95572.56;;;16.85;92.74
48563;BME280;34981;49.104;11.396;2022-07-01T04:54:30;95580.22;;;16.83;92.75
48563;BME280;34981;49.104;11.396;2022-07-01T04:56:57;95559.94;;;16.89;91.91
48563;BME280;34981;49.104;11.396;2022-07-01T04:59:25;95559.78;;;16.85;92.32
48563;BME280;34981;49.104;11.396;2022-07-01T05:01:52;95560.41;;;16.82;93.17
48563;BME280;34981;49.104;11.396;2022-07-01T05:04:19;95568.06;;;16.63;94.55
48563;BME280;34981;49.104;11.396;2022-07-01T05:06:46;95576.34;;;16.58;94.54
48563;BME280;34981;49.104;11.396;2022-07-01T05:09:13;95581.78;;;16.66;94.43
48563;BME280;34981;49.104;11.396;2022-07-01T05:11:40;95588.19;;;16.70;94.65
48563;BME280;34981;49.104;11.396;2022-07-01T05:14:08;95591.84;;;16.74;95.56
48563;BME280;34981;49.104;11.396;2022-07-01T05:16:35;95598.75;;;16.72;94.77
48563;BME280;34981;49.104;11.396;2022-07-01T05:19:03;95604.94;;;16.64;96.03
48563;BME280;34981;49.104;11.396;2022-07-01T05:21:49;95607.47;;;16.60;95.73
48563;BME280;34981;49.104;11.396;2022-07-01T05:24:29;95620.53;;;16.50;96.49
48563;BME280;34981;49.104;11.396;2022-07-01T05:26:57;95636.47;;;16.43;97.22
48563;BME280;34981;49.104;11.396;2022-07-01T05:29:26;95662.16;;;16.45;96.71
48563;BME280;34981;49.104;11.396;2022-07-01T05:31:53;95670.47;;;16.49;96.39
48563;BME280;34981;49.104;11.396;2022-07-01T05:34:20;95676.81;;;16.44;96.57
48563;BME280;34981;49.104;11.396;2022-07-01T05:36:47;95682.03;;;16.32;97.17
48563;BME280;34981;49.104;11.396;2022-07-01T05:39:14;95698.16;;;16.28;97.99
48563;BME280;34981;49.104;11.396;2022-07-01T05:41:42;95699.72;;;16.21;98.93
48563;BME280;34981;49.104;11.396;2022-07-01T05:44:09;95693.94;;;16.14;100.00
48563;BME280;34981;49.104;11.396;2022-07-01T05:46:36;95683.84;;;16.06;100.00
48563;BME280;34981;49.104;11.396;2022-07-01T05:49:03;95690.53;;;16.08;100.00
48563;BME280;34981;49.104;11.396;2022-07-01T05:51:31;95691.03;;;16.10;100.00
48563;BME280;34981;49.104;11.396;2022-07-01T05:53:58;95682.41;;;16.08;100.00
48563;BME280;34981;49.104;11.396;2022-07-01T05:56:25;95685.75;;;16.05;100.00
48563;BME280;34981;49.104;11.396;2022-07-01T05:58:53;95676.16;;;16.08;100.00
48563;BME280;34981;49.104;11.396;2022-07-01T06:01:20;95664.06;;;16.05;100.00
48563;BME280;34981;49.104;11.396;2022-07-01T06:03:48;95663.56;;;16.03;100.00
48563;BME280;34981;49.104;11.396;2022-07-01T06:06:15;95665.06;;;15.87;100.00
48563;BME280;34981;49.104;11.396;2022-07-01T06:08:45;95671.72;;;15.81;100.00
48563;BME280;34981;49.104;11.396;2022-07-01T06:11:12;95676.19;;;15.85;100.00
48563;BME280;34981;49.104;11.396;2022-07-01T06:13:39;95669.88;;;15.90;100.00
48563;BME280;34981;49.104;11.396;2022-07-01T06:16:06;95687.38;;;15.84;100.00
48563;BME280;34981;49.104;11.396;2022-07-01T06:18:33;95694.78;;;15.70;100.00
48563;BME280;34981;49.104;11.396;2022-07-01T06:21:01;95699.81;;;15.63;100.00
48563;BME280;34981;49.104;11.396;2022-07-01T06:23:28;95707.56;;;15.55;100.00
48563;BME280;34981;49.104;11.396;2022-07-01T06:25:55;95695.69;;;15.51;100.00
48563;BME280;34981;49.104;11.396;2022-07-01T06:28:23;95696.94;;;15.45;100.00
48563;BME280;34981;49.104;11.396;2022-07-01T06:30:52;95696.44;;;15.43;100.00
48563;BME280;34981;49.104;11.396;2022-07-01T06:33:21;95702.56;;;15.35;100.00
48563;BME280;34981;49.104;11.396;2022-07-01T06:35:49;95706.47;;;15.43;100.00
48563;BME280;34981;49.104;11.396;2022-07-01T06:38:16;95717.84;;;15.31;100.00
48563;BME280;34981;49.104;11.396;2022-07-01T06:40:43;95727.19;;;15.25;100.00
48563;BME280;34981;49.104;11.396;2022-07-01T06:43:30;95726.56;;;15.28;100.00
48563;BME280;34981;49.104;11.396;2022-07-01T06:45:57;95728.59;;;15.23;100.00
48563;BME280;34981;49.104;11.396;2022-07-01T06:48:24;95729.59;;;15.13;100.00
48563;BME280;34981;49.104;11.396;2022-07-01T06:50:51;95732.00;;;15.14;100.00
48563;BME280;34981;49.104;11.396;2022-07-01T06:53:19;95730.22;;;15.10;100.00
48563;BME280;34981;49.104;11.396;2022-07-01T06:55:46;95735.94;;;15.08;100.00
48563;BME280;34981;49.104;11.396;2022-07-01T06:58:17;95737.53;;;15.09;100.00
48563;BME280;34981;49.104;11.396;2022-07-01T07:00:44;95742.75;;;15.06;100.00
48563;BME280;34981;49.104;11.396;2022-07-01T07:03:12;95749.78;;;14.93;100.00
48563;BME280;34981;49.104;11.396;2022-07-01T07:05:39;95748.19;;;14.92;100.00
48563;BME280;34981;49.104;11.396;2022-07-01T07:08:06;95758.81;;;14.89;100.00
48563;BME280;34981;49.104;11.396;2022-07-01T07:10:33;95754.81;;;14.86;100.00
48563;BME280;34981;49.104;11.396;2022-07-01T07:13:02;95757.22;;;14.88;100.00
48563;BME280;34981;49.104;11.396;2022-07-01T07:15:29;95762.22;;;14.80;100.00
48563;BME280;34981;49.104;11.396;2022-07-01T07:17:56;95770.03;;;14.96;100.00
48563;BME280;34981;49.104;11.396;2022-07-01T07:20:24;95776.66;;;15.03;100.00
48563;BME280;34981;49.104;11.396;2022-07-01T07:22:52;95776.16;;;15.01;100.00
48563;BME280;34981;49.104;11.396;2022-07-01T07:25:19;95766.53;;;14.82;100.00
48563;BME280;34981;49.104;11.396;2022-07-01T07:27:46;95774.84;;;14.85;100.00
48563;BME280;34981;49.104;11.396;2022-07-01T07:30:14;95775.34;;;14.87;100.00
48563;BME280;34981;49.104;11.396;2022-07-01T07:32:41;95778.06;;;14.87;100.00
48563;BME280;34981;49.104;11.396;2022-07-01T07:35:09;95776.44;;;14.86;100.00
48563;BME280;34981;49.104;11.396;2022-07-01T07:37:36;95777.25;;;14.87;100.00
48563;BME280;34981;49.104;11.396;2022-07-01T07:40:03;95773.06;;;14.80;100.00
48563;BME280;34981;49.104;11.396;2022-07-01T07:42:33;95768.22;;;14.77;100.00
48563;BME280;34981;49.104;11.396;2022-07-01T07:45:00;95765.03;;;14.75;100.00
48563;BME280;34981;49.104;11.396;2022-07-01T07:47:28;95778.66;;;14.70;100.00
48563;BME280;34981;49.104;11.396;2022-07-01T07:49:56;95781.06;;;14.58;100.00
48563;BME280;34981;49.104;11.396;2022-07-01T07:52:23;95778.06;;;14.60;100.00
48563;BME280;34981;49.104;11.396;2022-07-01T07:54:50;95780.16;;;14.63;100.00
48563;BME280;34981;49.104;11.396;2022-07-01T07:57:18;95773.63;;;14.64;100.00
48563;BME280;34981;49.104;11.396;2022-07-01T07:59:45;95769.31;;;14.63;100.00
48563;BME280;34981;49.104;11.396;2022-07-01T08:02:12;95773.84;;;14.67;100.00
48563;BME280;34981;49.104;11.396;2022-07-01T08:04:40;95771.56;;;14.74;100.00
48563;BME280;34981;49.104;11.396;2022-07-01T08:07:08;95769.94;;;14.73;100.00
48563;BME280;34981;49.104;11.396;2022-07-01T08:09:39;95774.03;;;14.85;100.00
48563;BME280;34981;49.104;11.396;2022-07-01T08:12:08;95770.75;;;14.88;100.00
48563;BME280;34981;49.104;11.396;2022-07-01T08:14:35;95771.34;;;14.85;100.00
48563;BME280;34981;49.104;11.396;2022-07-01T08:17:03;95776.66;;;14.90;100.00
48563;BME280;34981;49.104;11.396;2022-07-01T08:19:30;95780.59;;;14.97;100.00
48563;BME280;34981;49.104;11.396;2022-07-01T08:21:57;95782.09;;;14.90;100.00
48563;BME280;34981;49.104;11.396;2022-07-01T08:24:24;95790.28;;;14.85;100.00
48563;BME280;34981;49.104;11.396;2022-07-01T08:26:52;95787.69;;;14.93;100.00
48563;BME280;34981;49.104;11.396;2022-07-01T08:29:19;95789.78;;;14.96;100.00
48563;BME280;34981;49.104;11.396;2022-07-01T08:31:47;95795.41;;;15.00;100.00
48563;BME280;34981;49.104;11.396;2022-07-01T08:34:20;95793.31;;;15.10;100.00
48563;BME280;34981;49.104;11.396;2022-07-01T08:38:17;95806.53;;;15.26;100.00
48563;BME280;34981;49.104;11.396;2022-07-01T08:40:49;95818.53;;;15.19;100.00
48563;BME280;34981;49.104;11.396;2022-07-01T08:43:20;95825.97;;;15.14;100.00
48563;BME280;34981;49.104;11.396;2022-07-01T08:45:47;95833.22;;;15.05;100.00
48563;BME280;34981;49.104;11.396;2022-07-01T08:48:17;95841.81;;;14.79;100.00
48563;BME280;34981;49.104;11.396;2022-07-01T08:50:44;95850.59;;;14.71;100.00
48563;BME280;34981;49.104;11.396;2022-07-01T08:53:12;95863.41;;;14.52;100.00
48563;BME280;34981;49.104;11.396;2022-07-01T08:55:41;95865.22;;;14.70;100.00
48563;BME280;34981;49.104;11.396;2022-07-01T08:58:27;95865.22;;;14.70;100.00
48563;BME280;34981;49.104;11.396;2022-07-01T09:03:40;95857.16;;;14.98;100.00
48563;BME280;34981;49.104;11.396;2022-07-01T09:06:12;95861.88;;;15.06;100.00
48563;BME280;34981;49.104;11.396;2022-07-01T09:08:41;95877.13;;;15.15;100.00
48563;BME280;34981;49.104;11.396;2022-07-01T09:11:12;95876.13;;;15.11;100.00
48563;BME280;34981;49.104;11.396;2022-07-01T09:13:39;95879.53;;;15.03;100.00
48563;BME280;34981;49.104;11.396;2022-07-01T09:16:15;95880.09;;;14.87;100.00
48563;BME280;34981;49.104;11.396;2022-07-01T09:19:01;95880.09;;;14.87;100.00
48563;BME280;34981;49.104;11.396;2022-07-01T09:21:31;95880.00;;;14.92;100.00
48563;BME280;34981;49.104;11.396;2022-07-01T09:23:59;95882.28;;;14.85;100.00
48563;BME280;34981;49.104;11.396;2022-07-01T09:26:29;95877.81;;;14.94;100.00
48563;BME280;34981;49.104;11.396;2022-07-01T09:28:57;95875.63;;;15.09;100.00
48563;BME280;34981;49.104;11.396;2022-07-01T09:31:33;95868.41;;;15.18;100.00
48563;BME280;34981;49.104;11.396;2022-07-01T09:34:05;95870.50;;;15.35;100.00
48563;BME280;34981;49.104;11.396;2022-07-01T09:36:32;95867.59;;;15.45;100.00
48563;BME280;34981;49.104;11.396;2022-07-01T09:39:03;95873.53;;;15.47;100.00
48563;BME280;34981;49.104;11.396;2022-07-01T09:41:54;95863.69;;;15.51;100.00
48563;BME280;34981;49.104;11.396;2022-07-01T09:44:21;95859.88;;;15.52;100.00
48563;BME280;34981;49.104;11.396;2022-07-01T09:46:55;95860.09;;;15.56;100.00
48563;BME280;34981;49.104;11.396;2022-07-01T09:49:23;95864.09;;;15.45;100.00
48563;BME280;34981;49.104;11.396;2022-07-01T09:51:50;95876.53;;;15.46;100.00
48563;BME280;34981;49.104;11.396;2022-07-01T09:54:18;95876.13;;;15.39;100.00
48563;BME280;34981;49.104;11.396;2022-07-01T09:56:45;95885.75;;;15.45;100.00
48563;BME280;34981;49.104;11.396;2022-07-01T09:59:17;95885.63;;;15.91;99.17
48563;BME280;34981;49.104;11.396;2022-07-01T10:01:44;95879.66;;;16.03;95.17
48563;BME280;34981;49.104;11.396;2022-07-01T10:04:12;95879.88;;;16.06;94.52
48563;BME280;34981;49.104;11.396;2022-07-01T10:14:30;95883.09;;;15.94;94.80
48563;BME280;34981;49.104;11.396;2022-07-01T10:16:57;95888.09;;;16.01;94.64
48563;BME280;34981;49.104;11.396;2022-07-01T10:19:29;95890.41;;;16.08;94.73
48563;BME280;34981;49.104;11.396;2022-07-01T10:22:01;95888.88;;;16.15;93.97
48563;BME280;34981;49.104;11.396;2022-07-01T10:24:47;95886.16;;;16.15;93.15
48563;BME280;34981;49.104;11.396;2022-07-01T10:27:21;95884.75;;;16.18;91.57
48563;BME280;34981;49.104;11.396;2022-07-01T10:29:49;95895.09;;;16.16;91.88
48563;BME280;34981;49.104;11.396;2022-07-01T10:35:09;95914.13;;;16.02;92.83
48563;BME280;34981;49.104;11.396;2022-07-01T10:37:51;95917.13;;;16.01;92.38
48563;BME280;34981;49.104;11.396;2022-07-01T10:40:39;95926.78;;;15.93;93.79
48563;BME280;34981;49.104;11.396;2022-07-01T10:43:06;95939.34;;;15.89;93.07
48563;BME280;34981;49.104;11.396;2022-07-01T10:45:53;95954.63;;;15.85;93.47
48563;BME280;34981;49.104;11.396;2022-07-01T10:48:22;95955.81;;;15.79;93.04
48563;BME280;34981;49.104;11.396;2022-07-01T10:50:49;95952.53;;;15.68;94.12
48563;BME280;34981;49.104;11.396;2022-07-01T10:53:18;95941.31;;;15.42;97.24
48563;BME280;34981;49.104;11.396;2022-07-01T10:55:52;95938.88;;;15.13;98.30
48563;BME280;34981;49.104;11.396;2022-07-01T10:58:38;95958.16;;;15.12;98.79
48563;BME280;34981;49.104;11.396;2022-07-01T11:01:06;95959.34;;;15.19;99.05
48563;BME280;34981;49.104;11.396;2022-07-01T11:03:36;95965.00;;;15.23;98.55
48563;BME280;34981;49.104;11.396;2022-07-01T11:06:06;95959.16;;;15.16;98.22
48563;BME280;34981;49.104;11.396;2022-07-01T11:08:34;95948.16;;;15.26;98.56
48563;BME280;34981;49.104;11.396;2022-07-01T11:11:01;95956.19;;;15.31;98.85
48563;BME280;34981;49.104;11.396;2022-07-01T11:13:31;95948.56;;;15.33;98.36
48563;BME280;34981;49.104;11.396;2022-07-01T11:15:59;95943.97;;;15.34;98.74
48563;BME280;34981;49.104;11.396;2022-07-01T11:18:26;95953.75;;;15.30;99.21
48563;BME280;34981;49.104;11.396;2022-07-01T11:21:01;95969.81;;;15.26;97.83
48563;BME280;34981;49.104;11.396;2022-07-01T11:23:28;95969.22;;;15.29;98.21
48563;BME280;34981;49.104;11.396;2022-07-01T11:25:56;95963.91;;;15.24;98.79
48563;BME280;34981;49.104;11.396;2022-07-01T11:28:23;95954.84;;;15.15;98.32
48563;BME280;34981;49.104;11.396;2022-07-01T11:30:57;95954.13;;;14.96;98.96
48563;BME280;34981;49.104;11.396;2022-07-01T11:33:25;95966.28;;;14.79;100.00
48563;BME280;34981;49.104;11.396;2022-07-01T11:35:52;95958.59;;;14.87;100.00
48563;BME280;34981;49.104;11.396;2022-07-01T11:38:37;95945.47;;;14.94;100.00
48563;BME280;34981;49.104;11.396;2022-07-01T11:41:24;95944.78;;;15.02;100.00
48563;BME280;34981;49.104;11.396;2022-07-01T11:43:52;95949.72;;;15.13;100.00
48563;BME280;34981;49.104;11.396;2022-07-01T11:46:20;95950.72;;;15.04;99.39
48563;BME280;34981;49.104;11.396;2022-07-01T11:48:48;95949.19;;;14.98;100.00
48563;BME280;34981;49.104;11.396;2022-07-01T11:51:18;95947.50;;;15.02;100.00
48563;BME280;34981;49.104;11.396;2022-07-01T11:53:46;95960.38;;;15.10;100.00
48563;BME280;34981;49.104;11.396;2022-07-01T11:56:16;95954.94;;;15.10;98.62
48563;BME280;34981;49.104;11.396;2022-07-01T11:58:50;95953.31;;;14.95;98.75
48563;BME280;34981;49.104;11.396;2022-07-01T12:03:48;95924.81;;;14.98;99.05
48563;BME280;34981;49.104;11.396;2022-07-01T12:06:18;95930.75;;;15.00;99.05
48563;BME280;34981;49.104;11.396;2022-07-01T12:08:49;95943.50;;;15.13;99.97
48563;BME280;34981;49.104;11.396;2022-07-01T12:11:17;95931.44;;;14.92;99.40
48563;BME280;34981;49.104;11.396;2022-07-01T12:13:44;95938.28;;;15.03;99.56
48563;BME280;34981;49.104;11.396;2022-07-01T12:16:13;95944.09;;;14.96;100.00
48563;BME280;34981;49.104;11.396;2022-07-01T12:18:50;95929.06;;;15.04;100.00
48563;BME280;34981;49.104;11.396;2022-07-01T12:21:17;95923.16;;;15.15;100.00
48563;BME280;34981;49.104;11.396;2022-07-01T12:26:31;95943.31;;;15.09;100.00
48563;BME280;34981;49.104;11.396;2022-07-01T12:28:58;95934.25;;;15.00;100.00
48563;BME280;34981;49.104;11.396;2022-07-01T12:31:25;95954.53;;;15.03;100.00
48563;BME280;34981;49.104;11.396;2022-07-01T12:33:52;95963.53;;;14.98;100.00
48563;BME280;34981;49.104;11.396;2022-07-01T12:36:19;95968.75;;;14.95;100.00
48563;BME280;34981;49.104;11.396;2022-07-01T12:38:46;95971.41;;;14.81;100.00
48563;BME280;34981;49.104;11.396;2022-07-01T12:41:29;95964.47;;;14.75;100.00
48563;BME280;34981;49.104;11.396;2022-07-01T12:44:23;95966.28;;;14.79;100.00
48563;BME280;34981;49.104;11.396;2022-07-01T12:46:51;95962.50;;;14.80;100.00
48563;BME280;34981;49.104;11.396;2022-07-01T12:49:20;95991.19;;;14.44;100.00
48563;BME280;34981;49.104;11.396;2022-07-01T12:51:47;96007.31;;;14.30;100.00
48563;BME280;34981;49.104;11.396;2022-07-01T12:56:58;96020.41;;;14.42;100.00
48563;BME280;34981;49.104;11.396;2022-07-01T12:59:25;96024.34;;;14.31;100.00
48563;BME280;34981;49.104;11.396;2022-07-01T13:01:53;96033.91;;;14.23;100.00
48563;BME280;34981;49.104;11.396;2022-07-01T13:04:24;96053.31;;;14.25;100.00
48563;BME280;34981;49.104;11.396;2022-07-01T13:06:52;96052.19;;;14.31;100.00
48563;BME280;34981;49.104;11.396;2022-07-01T13:09:19;96057.28;;;14.33;100.00
48563;BME280;34981;49.104;11.396;2022-07-01T13:11:46;96059.25;;;14.27;100.00
48563;BME280;34981;49.104;11.396;2022-07-01T13:14:14;96069.88;;;14.24;100.00
48563;BME280;34981;49.104;11.396;2022-07-01T13:16:41;96068.88;;;14.15;100.00
48563;BME280;34981;49.104;11.396;2022-07-01T13:19:08;96062.50;;;14.06;100.00
48563;BME280;34981;49.104;11.396;2022-07-01T13:21:35;96062.63;;;13.95;100.00